sensor_id;sensor_type;location;lat;lon;timestamp;temperature;humidity
23579;DHT22;11967;50.852;4.400;2023-08-17T00:01:41;24.30;99.90
23579;DHT22;11967;50.852;4.400;2023-08-17T00:04:07;24.30;99.90
23579;DHT22;11967;50.852;4.400;2023-08-17T00:06:33;24.20;99.90
23579;DHT22;11967;50.852;4.400;2023-08-17T00:08:59;24.20;99.90
23579;DHT22;11967;50.852;4.400;2023-08-17T00:11:24;24.20;99.90
23579;DHT22;11967;50.852;4.400;2023-08-17T00:13:50;24.10;99.90
23579;DHT22;11967;50.852;4.400;2023-08-17T00:16:16;24.10;99.90
23579;DHT22;11967;50.852;4.400;2023-08-17T00:18:42;24.10;99.90
23579;DHT22;11967;50.852;4.400;2023-08-17T00:21:08;24.10;99.90
23579;DHT22;11967;50.852;4.400;2023-08-17T00:23:34;24.10;99.90
23579;DHT22;11967;50.852;4.400;2023-08-17T00:26:00;24.10;99.90
23579;DHT22;11967;50.852;4.400;2023-08-17T00:28:26;24.00;99.90
23579;DHT22;11967;50.852;4.400;2023-08-17T00:30:52;24.00;99.90
23579;DHT22;11967;50.852;4.400;2023-08-17T00:33:18;24.00;99.90
23579;DHT22;11967;50.852;4.400;2023-08-17T00:35:44;23.90;99.90
23579;DHT22;11967;50.852;4.400;2023-08-17T00:38:11;23.90;99.90
23579;DHT22;11967;50.852;4.400;2023-08-17T00:40:37;23.90;99.90
23579;DHT22;11967;50.852;4.400;2023-08-17T00:43:04;23.90;99.90
23579;DHT22;11967;50.852;4.400;2023-08-17T00:45:30;23.90;99.90
23579;DHT22;11967;50.852;4.400;2023-08-17T00:47:57;23.90;99.90
23579;DHT22;11967;50.852;4.400;2023-08-17T00:50:24;23.90;99.90
23579;DHT22;11967;50.852;4.400;2023-08-17T00:52:52;23.90;99.90
23579;DHT22;11967;50.852;4.400;2023-08-17T00:55:18;23.90;99.90
23579;DHT22;11967;50.852;4.400;2023-08-17T00:57:44;23.90;99.90
23579;DHT22;11967;50.852;4.400;2023-08-17T01:00:12;23.90;99.90
23579;DHT22;11967;50.852;4.400;2023-08-17T01:02:42;23.90;99.90
23579;DHT22;11967;50.852;4.400;2023-08-17T01:05:08;23.90;99.90
23579;DHT22;11967;50.852;4.400;2023-08-17T01:07:34;23.80;99.90
23579;DHT22;11967;50.852;4.400;2023-08-17T01:10:00;23.90;99.90
23579;DHT22;11967;50.852;4.400;2023-08-17T01:12:33;23.80;99.90
23579;DHT22;11967;50.852;4.400;2023-08-17T01:15:27;23.90;99.90
23579;DHT22;11967;50.852;4.400;2023-08-17T01:20:34;23.80;99.90
23579;DHT22;11967;50.852;4.400;2023-08-17T01:23:05;23.80;99.90
23579;DHT22;11967;50.852;4.400;2023-08-17T01:25:32;23.80;99.90
23579;DHT22;11967;50.852;4.400;2023-08-17T01:28:03;23.80;99.90
23579;DHT22;11967;50.852;4.400;2023-08-17T01:30:33;23.80;99.90
23579;DHT22;11967;50.852;4.400;2023-08-17T01:33:08;23.70;99.90
23579;DHT22;11967;50.852;4.400;2023-08-17T01:35:39;23.70;99.90
23579;DHT22;11967;50.852;4.400;2023-08-17T01:38:16;23.60;99.90
23579;DHT22;11967;50.852;4.400;2023-08-17T01:40:44;23.60;99.90
23579;DHT22;11967;50.852;4.400;2023-08-17T01:43:11;23.60;99.90
23579;DHT22;11967;50.852;4.400;2023-08-17T01:45:37;23.70;99.90
23579;DHT22;11967;50.852;4.400;2023-08-17T01:48:04;23.70;99.90
23579;DHT22;11967;50.852;4.400;2023-08-17T01:50:30;23.60;99.90
23579;DHT22;11967;50.852;4.400;2023-08-17T01:52:55;23.60;99.90
23579;DHT22;11967;50.852;4.400;2023-08-17T01:55:22;23.60;99.90
23579;DHT22;11967;50.852;4.400;2023-08-17T01:57:50;23.60;99.90
23579;DHT22;11967;50.852;4.400;2023-08-17T02:00:16;23.60;99.90
23579;DHT22;11967;50.852;4.400;2023-08-17T02:02:42;23.50;99.90
23579;DHT22;11967;50.852;4.400;2023-08-17T02:05:08;23.50;99.90
23579;DHT22;11967;50.852;4.400;2023-08-17T02:07:34;23.50;99.90
23579;DHT22;11967;50.852;4.400;2023-08-17T02:10:00;23.60;99.90
23579;DHT22;11967;50.852;4.400;2023-08-17T02:12:25;23.60;99.90
23579;DHT22;11967;50.852;4.400;2023-08-17T02:14:51;23.60;99.90
23579;DHT22;11967;50.852;4.400;2023-08-17T02:17:16;23.50;99.90
23579;DHT22;11967;50.852;4.400;2023-08-17T02:19:44;23.50;99.90
23579;DHT22;11967;50.852;4.400;2023-08-17T02:22:10;23.50;99.90
23579;DHT22;11967;50.852;4.400;2023-08-17T02:24:36;23.50;99.90
23579;DHT22;11967;50.852;4.400;2023-08-17T02:27:02;23.50;99.90
23579;DHT22;11967;50.852;4.400;2023-08-17T02:29:29;23.40;99.90
23579;DHT22;11967;50.852;4.400;2023-08-17T02:31:54;23.50;99.90
23579;DHT22;11967;50.852;4.400;2023-08-17T02:34:20;23.50;99.90
23579;DHT22;11967;50.852;4.400;2023-08-17T02:36:45;23.50;99.90
23579;DHT22;11967;50.852;4.400;2023-08-17T02:39:11;23.40;99.90
23579;DHT22;11967;50.852;4.400;2023-08-17T02:41:37;23.40;99.90
23579;DHT22;11967;50.852;4.400;2023-08-17T02:44:03;23.30;99.90
23579;DHT22;11967;50.852;4.400;2023-08-17T02:46:28;23.30;99.90
23579;DHT22;11967;50.852;4.400;2023-08-17T02:48:54;23.30;99.90
23579;DHT22;11967;50.852;4.400;2023-08-17T02:51:20;23.30;99.90
23579;DHT22;11967;50.852;4.400;2023-08-17T02:53:45;23.30;99.90
23579;DHT22;11967;50.852;4.400;2023-08-17T02:56:11;23.20;99.90
23579;DHT22;11967;50.852;4.400;2023-08-17T02:58:38;23.20;99.90
23579;DHT22;11967;50.852;4.400;2023-08-17T03:01:07;23.20;99.90
23579;DHT22;11967;50.852;4.400;2023-08-17T03:03:33;23.10;99.90
23579;DHT22;11967;50.852;4.400;2023-08-17T03:05:59;23.10;99.90
23579;DHT22;11967;50.852;4.400;2023-08-17T03:08:25;23.20;99.90
23579;DHT22;11967;50.852;4.400;2023-08-17T03:10:50;23.20;99.90
23579;DHT22;11967;50.852;4.400;2023-08-17T03:13:16;23.10;99.90
23579;DHT22;11967;50.852;4.400;2023-08-17T03:15:42;23.10;99.90
23579;DHT22;11967;50.852;4.400;2023-08-17T03:18:08;23.20;99.90
23579;DHT22;11967;50.852;4.400;2023-08-17T03:20:33;23.20;99.90
23579;DHT22;11967;50.852;4.400;2023-08-17T03:22:59;23.20;99.90
23579;DHT22;11967;50.852;4.400;2023-08-17T03:25:25;23.20;99.90
23579;DHT22;11967;50.852;4.400;2023-08-17T03:27:50;23.10;99.90
23579;DHT22;11967;50.852;4.400;2023-08-17T03:30:16;23.10;99.90
23579;DHT22;11967;50.852;4.400;2023-08-17T03:32:42;23.10;99.90
23579;DHT22;11967;50.852;4.400;2023-08-17T03:35:08;23.00;99.90
23579;DHT22;11967;50.852;4.400;2023-08-17T03:37:33;23.00;99.90
23579;DHT22;11967;50.852;4.400;2023-08-17T03:39:59;23.00;99.90
23579;DHT22;11967;50.852;4.400;2023-08-17T03:42:26;23.00;99.90
23579;DHT22;11967;50.852;4.400;2023-08-17T03:44:52;23.00;99.90
23579;DHT22;11967;50.852;4.400;2023-08-17T03:47:18;23.10;99.90
23579;DHT22;11967;50.852;4.400;2023-08-17T03:49:45;23.20;99.90
23579;DHT22;11967;50.852;4.400;2023-08-17T03:52:11;23.10;99.90
23579;DHT22;11967;50.852;4.400;2023-08-17T03:54:37;23.10;99.90
23579;DHT22;11967;50.852;4.400;2023-08-17T03:57:03;23.10;99.90
23579;DHT22;11967;50.852;4.400;2023-08-17T03:59:28;23.00;99.90
23579;DHT22;11967;50.852;4.400;2023-08-17T04:01:54;23.00;99.90
23579;DHT22;11967;50.852;4.400;2023-08-17T04:04:20;23.00;99.90
23579;DHT22;11967;50.852;4.400;2023-08-17T04:06:45;23.00;99.90
23579;DHT22;11967;50.852;4.400;2023-08-17T04:09:11;23.00;99.90
23579;DHT22;11967;50.852;4.400;2023-08-17T04:11:37;23.00;99.90
23579;DHT22;11967;50.852;4.400;2023-08-17T04:14:04;23.00;99.90
23579;DHT22;11967;50.852;4.400;2023-08-17T04:16:30;22.90;99.90
23579;DHT22;11967;50.852;4.400;2023-08-17T04:18:55;22.90;99.90
23579;DHT22;11967;50.852;4.400;2023-08-17T04:21:21;22.80;99.90
23579;DHT22;11967;50.852;4.400;2023-08-17T04:23:47;22.90;99.90
23579;DHT22;11967;50.852;4.400;2023-08-17T04:26:13;22.80;99.90
23579;DHT22;11967;50.852;4.400;2023-08-17T04:28:39;22.80;99.90
23579;DHT22;11967;50.852;4.400;2023-08-17T04:31:05;22.90;99.90
23579;DHT22;11967;50.852;4.400;2023-08-17T04:33:30;22.80;99.90
23579;DHT22;11967;50.852;4.400;2023-08-17T04:35:56;22.80;99.90
23579;DHT22;11967;50.852;4.400;2023-08-17T04:38:22;22.70;99.90
23579;DHT22;11967;50.852;4.400;2023-08-17T04:40:48;22.70;99.90
23579;DHT22;11967;50.852;4.400;2023-08-17T04:43:13;22.70;99.90
23579;DHT22;11967;50.852;4.400;2023-08-17T04:45:39;22.70;99.90
23579;DHT22;11967;50.852;4.400;2023-08-17T04:48:05;22.70;99.90
23579;DHT22;11967;50.852;4.400;2023-08-17T04:50:31;22.70;99.90
23579;DHT22;11967;50.852;4.400;2023-08-17T04:52:57;22.60;99.90
23579;DHT22;11967;50.852;4.400;2023-08-17T04:55:23;22.70;99.90
23579;DHT22;11967;50.852;4.400;2023-08-17T04:57:50;22.60;99.90
23579;DHT22;11967;50.852;4.400;2023-08-17T05:00:16;22.60;99.90
23579;DHT22;11967;50.852;4.400;2023-08-17T05:02:42;22.60;99.90
23579;DHT22;11967;50.852;4.400;2023-08-17T05:05:09;22.60;99.90
23579;DHT22;11967;50.852;4.400;2023-08-17T05:07:35;22.60;99.90
23579;DHT22;11967;50.852;4.400;2023-08-17T05:10:01;22.60;99.90
23579;DHT22;11967;50.852;4.400;2023-08-17T05:12:27;22.70;99.90
23579;DHT22;11967;50.852;4.400;2023-08-17T05:14:53;22.60;99.90
23579;DHT22;11967;50.852;4.400;2023-08-17T05:17:18;22.60;99.90
23579;DHT22;11967;50.852;4.400;2023-08-17T05:19:44;22.60;99.90
23579;DHT22;11967;50.852;4.400;2023-08-17T05:22:11;22.60;99.90
23579;DHT22;11967;50.852;4.400;2023-08-17T05:24:37;22.60;99.90
23579;DHT22;11967;50.852;4.400;2023-08-17T05:27:03;22.60;99.90
23579;DHT22;11967;50.852;4.400;2023-08-17T05:29:28;22.60;99.90
23579;DHT22;11967;50.852;4.400;2023-08-17T05:31:54;22.70;99.90
23579;DHT22;11967;50.852;4.400;2023-08-17T05:34:20;22.70;99.90
23579;DHT22;11967;50.852;4.400;2023-08-17T05:36:46;22.70;99.90
23579;DHT22;11967;50.852;4.400;2023-08-17T05:39:11;22.70;99.90
23579;DHT22;11967;50.852;4.400;2023-08-17T05:41:37;22.70;99.90
23579;DHT22;11967;50.852;4.400;2023-08-17T05:44:04;22.80;99.90
23579;DHT22;11967;50.852;4.400;2023-08-17T05:46:34;22.80;99.90
23579;DHT22;11967;50.852;4.400;2023-08-17T05:49:01;22.70;99.90
23579;DHT22;11967;50.852;4.400;2023-08-17T05:51:27;22.70;99.90
23579;DHT22;11967;50.852;4.400;2023-08-17T05:53:52;22.70;99.90
23579;DHT22;11967;50.852;4.400;2023-08-17T05:56:18;22.70;99.90
23579;DHT22;11967;50.852;4.400;2023-08-17T05:58:44;22.70;99.90
23579;DHT22;11967;50.852;4.400;2023-08-17T06:01:10;22.70;99.90
23579;DHT22;11967;50.852;4.400;2023-08-17T06:03:37;22.60;99.90
23579;DHT22;11967;50.852;4.400;2023-08-17T06:06:04;22.70;99.90
23579;DHT22;11967;50.852;4.400;2023-08-17T06:08:30;22.70;99.90
23579;DHT22;11967;50.852;4.400;2023-08-17T06:10:56;22.70;99.90
23579;DHT22;11967;50.852;4.400;2023-08-17T06:13:22;22.60;99.90
23579;DHT22;11967;50.852;4.400;2023-08-17T06:15:48;22.60;99.90
23579;DHT22;11967;50.852;4.400;2023-08-17T06:18:13;22.60;99.90
23579;DHT22;11967;50.852;4.400;2023-08-17T06:20:39;22.70;99.90
23579;DHT22;11967;50.852;4.400;2023-08-17T06:23:04;22.70;99.90
23579;DHT22;11967;50.852;4.400;2023-08-17T06:25:30;22.70;99.90
23579;DHT22;11967;50.852;4.400;2023-08-17T06:27:56;22.70;99.90
23579;DHT22;11967;50.852;4.400;2023-08-17T06:30:22;22.70;99.90
23579;DHT22;11967;50.852;4.400;2023-08-17T06:32:48;22.70;99.90
23579;DHT22;11967;50.852;4.400;2023-08-17T06:35:13;22.70;99.90
23579;DHT22;11967;50.852;4.400;2023-08-17T06:37:39;22.60;99.90
23579;DHT22;11967;50.852;4.400;2023-08-17T06:40:05;22.70;99.90
23579;DHT22;11967;50.852;4.400;2023-08-17T06:42:32;22.70;99.90
23579;DHT22;11967;50.852;4.400;2023-08-17T06:44:57;22.80;99.90
23579;DHT22;11967;50.852;4.400;2023-08-17T06:47:23;22.80;99.90
23579;DHT22;11967;50.852;4.400;2023-08-17T06:49:49;22.70;99.90
23579;DHT22;11967;50.852;4.400;2023-08-17T06:52:14;22.70;99.90
23579;DHT22;11967;50.852;4.400;2023-08-17T06:54:40;22.70;99.90
23579;DHT22;11967;50.852;4.400;2023-08-17T06:57:06;22.70;99.90
23579;DHT22;11967;50.852;4.400;2023-08-17T06:59:31;22.70;99.90
23579;DHT22;11967;50.852;4.400;2023-08-17T07:01:59;22.80;99.90
23579;DHT22;11967;50.852;4.400;2023-08-17T07:04:25;22.80;99.90
23579;DHT22;11967;50.852;4.400;2023-08-17T07:06:51;22.90;99.90
23579;DHT22;11967;50.852;4.400;2023-08-17T07:09:16;22.90;99.90
23579;DHT22;11967;50.852;4.400;2023-08-17T07:11:42;22.90;99.90
23579;DHT22;11967;50.852;4.400;2023-08-17T07:14:08;23.00;99.90
23579;DHT22;11967;50.852;4.400;2023-08-17T07:16:34;22.90;99.90
23579;DHT22;11967;50.852;4.400;2023-08-17T07:19:00;22.90;99.90
23579;DHT22;11967;50.852;4.400;2023-08-17T07:21:25;22.90;99.90
23579;DHT22;11967;50.852;4.400;2023-08-17T07:23:55;22.90;99.90
23579;DHT22;11967;50.852;4.400;2023-08-17T07:26:21;23.00;99.90
23579;DHT22;11967;50.852;4.400;2023-08-17T07:28:48;23.30;99.90
23579;DHT22;11967;50.852;4.400;2023-08-17T07:31:14;23.50;99.90
23579;DHT22;11967;50.852;4.400;2023-08-17T07:33:40;23.50;99.90
23579;DHT22;11967;50.852;4.400;2023-08-17T07:36:05;23.70;99.90
23579;DHT22;11967;50.852;4.400;2023-08-17T07:38:31;23.80;99.90
23579;DHT22;11967;50.852;4.400;2023-08-17T07:40:57;24.00;99.90
23579;DHT22;11967;50.852;4.400;2023-08-17T07:43:23;24.10;99.90
23579;DHT22;11967;50.852;4.400;2023-08-17T07:45:56;24.20;99.90
23579;DHT22;11967;50.852;4.400;2023-08-17T07:48:22;24.30;99.90
23579;DHT22;11967;50.852;4.400;2023-08-17T07:50:52;24.40;99.90
23579;DHT22;11967;50.852;4.400;2023-08-17T07:53:19;24.40;99.90
23579;DHT22;11967;50.852;4.400;2023-08-17T07:55:45;24.40;99.90
23579;DHT22;11967;50.852;4.400;2023-08-17T07:58:11;24.50;99.90
23579;DHT22;11967;50.852;4.400;2023-08-17T08:00:37;24.50;99.90
23579;DHT22;11967;50.852;4.400;2023-08-17T08:03:04;24.60;99.90
23579;DHT22;11967;50.852;4.400;2023-08-17T08:05:31;24.60;99.90
23579;DHT22;11967;50.852;4.400;2023-08-17T08:07:57;24.50;99.90
23579;DHT22;11967;50.852;4.400;2023-08-17T08:10:23;24.60;99.90
23579;DHT22;11967;50.852;4.400;2023-08-17T08:12:48;24.60;99.90
23579;DHT22;11967;50.852;4.400;2023-08-17T08:15:15;24.60;99.90
23579;DHT22;11967;50.852;4.400;2023-08-17T08:17:40;24.70;99.90
23579;DHT22;11967;50.852;4.400;2023-08-17T08:20:07;24.60;99.90
23579;DHT22;11967;50.852;4.400;2023-08-17T08:22:32;24.60;99.90
23579;DHT22;11967;50.852;4.400;2023-08-17T08:24:58;24.60;99.90
23579;DHT22;11967;50.852;4.400;2023-08-17T08:27:24;24.50;99.90
23579;DHT22;11967;50.852;4.400;2023-08-17T08:29:50;24.70;99.90
23579;DHT22;11967;50.852;4.400;2023-08-17T08:32:16;24.70;99.90
23579;DHT22;11967;50.852;4.400;2023-08-17T08:34:41;24.70;99.90
23579;DHT22;11967;50.852;4.400;2023-08-17T08:37:07;24.60;99.90
23579;DHT22;11967;50.852;4.400;2023-08-17T08:39:48;24.60;99.90
23579;DHT22;11967;50.852;4.400;2023-08-17T08:42:14;24.60;99.90
23579;DHT22;11967;50.852;4.400;2023-08-17T08:44:40;24.60;99.90
23579;DHT22;11967;50.852;4.400;2023-08-17T08:47:06;24.60;99.90
23579;DHT22;11967;50.852;4.400;2023-08-17T08:49:34;24.60;99.90
23579;DHT22;11967;50.852;4.400;2023-08-17T08:52:03;24.80;99.90
23579;DHT22;11967;50.852;4.400;2023-08-17T08:54:32;24.70;99.90
23579;DHT22;11967;50.852;4.400;2023-08-17T08:57:03;24.70;99.90
23579;DHT22;11967;50.852;4.400;2023-08-17T08:59:31;24.70;99.90
23579;DHT22;11967;50.852;4.400;2023-08-17T09:01:57;24.70;99.90
23579;DHT22;11967;50.852;4.400;2023-08-17T09:04:24;24.80;99.90
23579;DHT22;11967;50.852;4.400;2023-08-17T09:06:51;24.80;99.90
23579;DHT22;11967;50.852;4.400;2023-08-17T09:09:18;24.80;99.90
23579;DHT22;11967;50.852;4.400;2023-08-17T09:11:44;24.80;99.90
23579;DHT22;11967;50.852;4.400;2023-08-17T09:14:09;24.90;99.90
23579;DHT22;11967;50.852;4.400;2023-08-17T09:16:35;24.90;99.90
23579;DHT22;11967;50.852;4.400;2023-08-17T09:19:01;25.00;99.90
23579;DHT22;11967;50.852;4.400;2023-08-17T09:21:31;25.00;99.90
23579;DHT22;11967;50.852;4.400;2023-08-17T09:23:57;25.00;99.90
23579;DHT22;11967;50.852;4.400;2023-08-17T09:26:23;25.00;99.90
23579;DHT22;11967;50.852;4.400;2023-08-17T09:28:50;25.00;99.90
23579;DHT22;11967;50.852;4.400;2023-08-17T09:31:16;25.10;99.90
23579;DHT22;11967;50.852;4.400;2023-08-17T09:33:49;25.20;99.90
23579;DHT22;11967;50.852;4.400;2023-08-17T09:36:15;25.30;99.90
23579;DHT22;11967;50.852;4.400;2023-08-17T09:38:41;25.30;99.90
23579;DHT22;11967;50.852;4.400;2023-08-17T09:41:06;25.30;99.90
23579;DHT22;11967;50.852;4.400;2023-08-17T09:43:32;25.20;99.90
23579;DHT22;11967;50.852;4.400;2023-08-17T09:46:00;25.20;99.90
23579;DHT22;11967;50.852;4.400;2023-08-17T09:48:28;25.10;99.90
23579;DHT22;11967;50.852;4.400;2023-08-17T09:50:56;25.20;99.90
23579;DHT22;11967;50.852;4.400;2023-08-17T09:53:23;25.20;99.90
23579;DHT22;11967;50.852;4.400;2023-08-17T09:55:50;25.20;99.90
23579;DHT22;11967;50.852;4.400;2023-08-17T09:58:16;25.30;99.90
23579;DHT22;11967;50.852;4.400;2023-08-17T10:00:49;25.30;99.90
23579;DHT22;11967;50.852;4.400;2023-08-17T10:03:16;25.40;99.90
23579;DHT22;11967;50.852;4.400;2023-08-17T10:06:01;25.40;99.90
23579;DHT22;11967;50.852;4.400;2023-08-17T10:08:28;25.40;99.90
23579;DHT22;11967;50.852;4.400;2023-08-17T10:10:57;25.40;99.90
23579;DHT22;11967;50.852;4.400;2023-08-17T10:13:35;25.40;99.90
23579;DHT22;11967;50.852;4.400;2023-08-17T10:16:10;25.50;99.90
23579;DHT22;11967;50.852;4.400;2023-08-17T10:21:46;25.50;99.90
23579;DHT22;11967;50.852;4.400;2023-08-17T10:24:12;25.40;99.90
23579;DHT22;11967;50.852;4.400;2023-08-17T10:26:39;25.50;99.90
23579;DHT22;11967;50.852;4.400;2023-08-17T10:29:06;25.60;99.90
23579;DHT22;11967;50.852;4.400;2023-08-17T10:31:35;25.60;99.90
23579;DHT22;11967;50.852;4.400;2023-08-17T10:34:02;25.60;99.90
23579;DHT22;11967;50.852;4.400;2023-08-17T10:36:30;25.70;99.90
23579;DHT22;11967;50.852;4.400;2023-08-17T10:39:22;25.70;99.90
23579;DHT22;11967;50.852;4.400;2023-08-17T10:41:50;25.70;99.90
23579;DHT22;11967;50.852;4.400;2023-08-17T10:44:17;25.70;99.90
23579;DHT22;11967;50.852;4.400;2023-08-17T10:46:44;25.60;99.90
23579;DHT22;11967;50.852;4.400;2023-08-17T10:49:27;25.70;99.90
23579;DHT22;11967;50.852;4.400;2023-08-17T10:52:03;25.80;99.90
23579;DHT22;11967;50.852;4.400;2023-08-17T10:54:37;25.80;99.90
23579;DHT22;11967;50.852;4.400;2023-08-17T11:00:06;25.60;99.90
23579;DHT22;11967;50.852;4.400;2023-08-17T11:02:37;25.60;99.90
23579;DHT22;11967;50.852;4.400;2023-08-17T11:05:04;25.70;99.90
23579;DHT22;11967;50.852;4.400;2023-08-17T11:07:44;25.70;99.90
23579;DHT22;11967;50.852;4.400;2023-08-17T11:12:45;25.70;99.90
23579;DHT22;11967;50.852;4.400;2023-08-17T11:15:10;25.70;99.90
23579;DHT22;11967;50.852;4.400;2023-08-17T11:17:36;25.70;99.90
23579;DHT22;11967;50.852;4.400;2023-08-17T11:20:03;25.80;99.90
23579;DHT22;11967;50.852;4.400;2023-08-17T11:22:30;25.80;99.90
23579;DHT22;11967;50.852;4.400;2023-08-17T11:24:55;25.80;99.90
23579;DHT22;11967;50.852;4.400;2023-08-17T11:27:21;25.80;99.90
23579;DHT22;11967;50.852;4.400;2023-08-17T11:29:47;25.80;99.90
23579;DHT22;11967;50.852;4.400;2023-08-17T11:32:16;25.80;99.90
23579;DHT22;11967;50.852;4.400;2023-08-17T11:34:43;25.70;99.90
23579;DHT22;11967;50.852;4.400;2023-08-17T11:37:11;25.70;99.90
23579;DHT22;11967;50.852;4.400;2023-08-17T11:39:36;25.60;99.90
23579;DHT22;11967;50.852;4.400;2023-08-17T11:42:03;25.70;99.90
23579;DHT22;11967;50.852;4.400;2023-08-17T11:44:29;25.70;99.90
23579;DHT22;11967;50.852;4.400;2023-08-17T11:46:54;25.70;99.90
23579;DHT22;11967;50.852;4.400;2023-08-17T11:49:20;25.70;99.90
23579;DHT22;11967;50.852;4.400;2023-08-17T11:51:47;25.60;99.90
23579;DHT22;11967;50.852;4.400;2023-08-17T11:54:13;25.60;99.90
23579;DHT22;11967;50.852;4.400;2023-08-17T11:56:39;25.60;99.90
23579;DHT22;11967;50.852;4.400;2023-08-17T11:59:09;25.60;99.90
23579;DHT22;11967;50.852;4.400;2023-08-17T12:01:39;25.50;99.90
23579;DHT22;11967;50.852;4.400;2023-08-17T12:04:06;25.50;99.90
23579;DHT22;11967;50.852;4.400;2023-08-17T12:06:33;25.60;99.90
23579;DHT22;11967;50.852;4.400;2023-08-17T12:08:59;25.60;99.90
23579;DHT22;11967;50.852;4.400;2023-08-17T12:11:25;25.60;99.90
23579;DHT22;11967;50.852;4.400;2023-08-17T12:13:53;25.60;99.90
23579;DHT22;11967;50.852;4.400;2023-08-17T12:16:20;25.60;99.90
23579;DHT22;11967;50.852;4.400;2023-08-17T12:18:52;25.50;99.90
23579;DHT22;11967;50.852;4.400;2023-08-17T12:21:23;25.50;99.90
23579;DHT22;11967;50.852;4.400;2023-08-17T12:23:49;25.70;99.90
23579;DHT22;11967;50.852;4.400;2023-08-17T12:26:22;25.70;99.90
23579;DHT22;11967;50.852;4.400;2023-08-17T12:28:49;25.70;99.90
23579;DHT22;11967;50.852;4.400;2023-08-17T12:31:21;25.60;99.90
23579;DHT22;11967;50.852;4.400;2023-08-17T12:33:47;25.60;99.90
23579;DHT22;11967;50.852;4.400;2023-08-17T12:36:12;25.60;99.90
23579;DHT22;11967;50.852;4.400;2023-08-17T12:38:38;25.60;99.90
23579;DHT22;11967;50.852;4.400;2023-08-17T12:41:10;25.60;99.90
23579;DHT22;11967;50.852;4.400;2023-08-17T12:43:37;25.60;99.90
23579;DHT22;11967;50.852;4.400;2023-08-17T12:46:03;25.50;99.90
23579;DHT22;11967;50.852;4.400;2023-08-17T12:48:29;25.50;99.90
23579;DHT22;11967;50.852;4.400;2023-08-17T12:50:54;25.60;99.90
23579;DHT22;11967;50.852;4.400;2023-08-17T12:53:20;25.60;99.90
23579;DHT22;11967;50.852;4.400;2023-08-17T12:55:45;25.70;99.90
23579;DHT22;11967;50.852;4.400;2023-08-17T12:58:12;25.70;99.90
23579;DHT22;11967;50.852;4.400;2023-08-17T13:00:37;25.70;99.90
23579;DHT22;11967;50.852;4.400;2023-08-17T13:03:03;25.70;99.90
23579;DHT22;11967;50.852;4.400;2023-08-17T13:05:29;25.70;99.90
23579;DHT22;11967;50.852;4.400;2023-08-17T13:07:55;25.70;99.90
23579;DHT22;11967;50.852;4.400;2023-08-17T13:10:20;25.80;99.90
23579;DHT22;11967;50.852;4.400;2023-08-17T13:12:46;25.70;99.90
23579;DHT22;11967;50.852;4.400;2023-08-17T13:15:13;25.70;99.90
23579;DHT22;11967;50.852;4.400;2023-08-17T13:17:38;25.70;99.90
23579;DHT22;11967;50.852;4.400;2023-08-17T13:20:05;25.70;99.90
23579;DHT22;11967;50.852;4.400;2023-08-17T13:22:32;25.70;99.90
23579;DHT22;11967;50.852;4.400;2023-08-17T13:24:57;25.70;99.90
23579;DHT22;11967;50.852;4.400;2023-08-17T13:27:23;25.60;99.90
23579;DHT22;11967;50.852;4.400;2023-08-17T13:29:49;25.60;99.90
23579;DHT22;11967;50.852;4.400;2023-08-17T13:32:16;25.60;99.90
23579;DHT22;11967;50.852;4.400;2023-08-17T13:34:41;25.70;99.90
23579;DHT22;11967;50.852;4.400;2023-08-17T13:37:07;25.70;99.90
23579;DHT22;11967;50.852;4.400;2023-08-17T13:39:32;25.60;99.90
23579;DHT22;11967;50.852;4.400;2023-08-17T13:41:58;25.70;99.90
23579;DHT22;11967;50.852;4.400;2023-08-17T13:44:24;25.70;99.90
23579;DHT22;11967;50.852;4.400;2023-08-17T13:46:49;25.70;99.90
23579;DHT22;11967;50.852;4.400;2023-08-17T13:49:15;25.70;99.90
23579;DHT22;11967;50.852;4.400;2023-08-17T13:51:41;25.80;99.90
23579;DHT22;11967;50.852;4.400;2023-08-17T13:54:07;25.80;99.90
23579;DHT22;11967;50.852;4.400;2023-08-17T13:56:32;25.80;99.90
23579;DHT22;11967;50.852;4.400;2023-08-17T13:58:58;25.70;99.90
23579;DHT22;11967;50.852;4.400;2023-08-17T14:01:23;25.70;99.90
23579;DHT22;11967;50.852;4.400;2023-08-17T14:03:49;25.70;99.90
23579;DHT22;11967;50.852;4.400;2023-08-17T14:06:15;25.80;99.90
23579;DHT22;11967;50.852;4.400;2023-08-17T14:08:41;25.80;99.90
23579;DHT22;11967;50.852;4.400;2023-08-17T14:11:08;25.80;99.90
23579;DHT22;11967;50.852;4.400;2023-08-17T14:13:34;25.80;99.90
23579;DHT22;11967;50.852;4.400;2023-08-17T14:16:02;25.80;99.90
23579;DHT22;11967;50.852;4.400;2023-08-17T14:18:28;25.80;99.90
23579;DHT22;11967;50.852;4.400;2023-08-17T14:20:53;25.80;99.90
23579;DHT22;11967;50.852;4.400;2023-08-17T14:23:19;25.80;99.90
23579;DHT22;11967;50.852;4.400;2023-08-17T14:25:45;25.80;99.90
23579;DHT22;11967;50.852;4.400;2023-08-17T14:28:10;25.80;99.90
23579;DHT22;11967;50.852;4.400;2023-08-17T14:30:36;25.70;99.90
23579;DHT22;11967;50.852;4.400;2023-08-17T14:33:01;25.70;99.90
23579;DHT22;11967;50.852;4.400;2023-08-17T14:35:28;25.70;99.90
23579;DHT22;11967;50.852;4.400;2023-08-17T14:37:53;25.70;99.90
23579;DHT22;11967;50.852;4.400;2023-08-17T14:40:23;25.60;99.90
23579;DHT22;11967;50.852;4.400;2023-08-17T14:42:49;25.50;99.90
23579;DHT22;11967;50.852;4.400;2023-08-17T14:45:14;25.50;99.90
23579;DHT22;11967;50.852;4.400;2023-08-17T14:47:40;25.50;99.90
23579;DHT22;11967;50.852;4.400;2023-08-17T14:50:06;25.50;99.90
23579;DHT22;11967;50.852;4.400;2023-08-17T14:52:32;25.60;99.90
23579;DHT22;11967;50.852;4.400;2023-08-17T14:54:57;25.50;99.90
23579;DHT22;11967;50.852;4.400;2023-08-17T14:57:24;25.50;99.90
23579;DHT22;11967;50.852;4.400;2023-08-17T14:59:49;25.50;99.90
23579;DHT22;11967;50.852;4.400;2023-08-17T15:02:15;25.50;99.90
23579;DHT22;11967;50.852;4.400;2023-08-17T15:04:43;25.50;99.90
23579;DHT22;11967;50.852;4.400;2023-08-17T15:07:09;25.50;99.90
23579;DHT22;11967;50.852;4.400;2023-08-17T15:09:38;25.50;99.90
23579;DHT22;11967;50.852;4.400;2023-08-17T15:12:04;25.50;99.90
23579;DHT22;11967;50.852;4.400;2023-08-17T15:14:30;25.60;99.90
23579;DHT22;11967;50.852;4.400;2023-08-17T15:16:56;25.60;99.90
23579;DHT22;11967;50.852;4.400;2023-08-17T15:19:22;25.70;99.90
23579;DHT22;11967;50.852;4.400;2023-08-17T15:21:48;25.70;99.90
23579;DHT22;11967;50.852;4.400;2023-08-17T15:24:14;25.70;99.90
23579;DHT22;11967;50.852;4.400;2023-08-17T15:26:39;25.70;99.90
23579;DHT22;11967;50.852;4.400;2023-08-17T15:29:06;25.60;99.90
23579;DHT22;11967;50.852;4.400;2023-08-17T15:31:31;25.60;99.90
23579;DHT22;11967;50.852;4.400;2023-08-17T15:33:57;25.60;99.90
23579;DHT22;11967;50.852;4.400;2023-08-17T15:36:23;25.60;99.90
23579;DHT22;11967;50.852;4.400;2023-08-17T15:38:50;25.70;99.90